Time;durP1;ratioP1;P1;durP2;ratioP2;P2;SDS_P1;SDS_P2;PMS_P1;PMS_P2;Temp;Humidity;BMP_temperature;BMP_pressure;BME280_temperature;BME280_humidity;BME280_pressure;Samples;Min_cycle;Max_cycle;Signal;HPM_P1;HPM_P2
2023/07/18 00:01:50;;;;;;;;;;;15.80;80.40;;;;;;4974417;28;19914;-87
2023/07/18 00:04:15;;;;;;;;;;;15.80;80.40;;;;;;4974348;28;19914;-87
2023/07/18 00:06:41;;;;;;;;;;;15.80;81.00;;;;;;4972185;28;19918;-88
2023/07/18 00:09:07;;;;;;;;;;;15.70;80.70;;;;;;4971921;28;20366;-87
2023/07/18 00:11:33;;;;;;;;;;;15.70;80.30;;;;;;4966013;28;20009;-88
2023/07/18 00:13:58;;;;;;;;;;;15.70;80.10;;;;;;4954829;28;19910;-87
2023/07/18 00:16:24;;;;;;;;;;;15.70;80.00;;;;;;4961178;28;19941;-87
2023/07/18 00:18:50;;;;;;;;;;;15.70;80.20;;;;;;4975340;28;20264;-87
2023/07/18 00:21:16;;;;;;;;;;;15.80;79.90;;;;;;4976172;28;19914;-89
2023/07/18 00:23:41;;;;;;;;;;;15.80;79.50;;;;;;4978956;28;19956;-88
2023/07/18 00:26:08;;;;;;;;;;;15.80;79.80;;;;;;4972389;28;20388;-87
2023/07/18 00:28:33;;;;;;;;;;;15.70;80.00;;;;;;4968619;28;19914;-87
2023/07/18 00:30:59;;;;;;;;;;;15.60;80.60;;;;;;4970674;28;19920;-88
2023/07/18 00:33:25;;;;;;;;;;;15.70;80.10;;;;;;4974306;28;20298;-87
2023/07/18 00:35:51;;;;;;;;;;;15.60;80.50;;;;;;4956577;28;19914;-87
2023/07/18 00:38:16;;;;;;;;;;;15.60;80.40;;;;;;4966820;28;19937;-87
2023/07/18 00:40:41;;;;;;;;;;;15.70;79.50;;;;;;4960555;28;19921;-91
2023/07/18 00:43:14;;;;;;;;;;;15.70;79.50;;;;;;4974561;28;19918;-86
2023/07/18 00:45:40;;;;;;;;;;;15.70;79.70;;;;;;4984846;28;19921;-88
2023/07/18 00:48:07;;;;;;;;;;;15.60;79.30;;;;;;4973749;28;20357;-87
2023/07/18 00:50:33;;;;;;;;;;;15.60;79.60;;;;;;4972738;28;20318;-87
2023/07/18 00:53:00;;;;;;;;;;;15.60;79.90;;;;;;4963398;28;19916;-86
2023/07/18 00:55:26;;;;;;;;;;;15.60;79.70;;;;;;4954351;28;19957;-87
2023/07/18 00:57:52;;;;;;;;;;;15.60;79.40;;;;;;4959856;28;19910;-87
2023/07/18 01:00:22;;;;;;;;;;;15.60;79.70;;;;;;4965951;28;19918;-87
2023/07/18 01:02:49;;;;;;;;;;;15.60;80.00;;;;;;4966283;28;19972;-87
2023/07/18 01:05:16;;;;;;;;;;;15.60;80.10;;;;;;4956915;28;19917;-87
2023/07/18 01:07:42;;;;;;;;;;;15.50;80.40;;;;;;4961156;28;19993;-90
2023/07/18 01:10:22;;;;;;;;;;;15.50;79.90;;;;;;4986833;28;19911;-88
2023/07/18 01:12:48;;;;;;;;;;;15.60;79.50;;;;;;4963971;28;19914;-88
2023/07/18 01:15:14;;;;;;;;;;;15.50;79.60;;;;;;4960464;28;19943;-87
2023/07/18 01:17:41;;;;;;;;;;;15.50;79.80;;;;;;4968605;28;20293;-87
2023/07/18 01:20:27;;;;;;;;;;;15.50;79.80;;;;;;4953319;28;19922;-87
2023/07/18 01:22:53;;;;;;;;;;;15.50;80.50;;;;;;4967032;28;20444;-88
2023/07/18 01:25:19;;;;;;;;;;;15.50;80.10;;;;;;4968146;28;19942;-88
2023/07/18 01:27:45;;;;;;;;;;;15.40;79.80;;;;;;4973369;28;19957;-88
2023/07/18 01:30:11;;;;;;;;;;;15.40;80.10;;;;;;4973545;28;19927;-88
2023/07/18 01:32:37;;;;;;;;;;;15.40;80.30;;;;;;4957596;28;19910;-88
2023/07/18 01:35:05;;;;;;;;;;;15.40;80.40;;;;;;4957141;28;20617;-88
2023/07/18 01:37:31;;;;;;;;;;;15.30;80.20;;;;;;4946919;28;19955;-89
2023/07/18 01:39:57;;;;;;;;;;;15.30;80.10;;;;;;4971588;28;19961;-87
2023/07/18 01:42:23;;;;;;;;;;;15.30;80.00;;;;;;4972369;28;19949;-88
2023/07/18 01:44:48;;;;;;;;;;;15.30;80.10;;;;;;4977111;28;19925;-89
2023/07/18 01:47:22;;;;;;;;;;;15.30;80.70;;;;;;4964175;28;19910;-87
2023/07/18 01:49:47;;;;;;;;;;;15.30;80.80;;;;;;4985338;28;19928;-88
2023/07/18 01:52:13;;;;;;;;;;;15.30;80.30;;;;;;4977572;28;19914;-88
2023/07/18 01:54:38;;;;;;;;;;;15.20;80.90;;;;;;4976310;28;19956;-88
2023/07/18 01:57:04;;;;;;;;;;;15.20;81.00;;;;;;4964466;28;19910;-87
2023/07/18 01:59:30;;;;;;;;;;;15.10;81.40;;;;;;4954377;28;19918;-88
2023/07/18 02:01:56;;;;;;;;;;;15.10;81.50;;;;;;4966746;28;19911;-87
2023/07/18 02:04:22;;;;;;;;;;;15.10;81.00;;;;;;4974343;28;19967;-87
2023/07/18 02:06:48;;;;;;;;;;;15.10;80.70;;;;;;4978193;28;19917;-87
2023/07/18 02:09:13;;;;;;;;;;;15.00;80.80;;;;;;4976435;28;19914;-88
2023/07/18 02:11:39;;;;;;;;;;;15.00;81.40;;;;;;4959031;28;19913;-87
2023/07/18 02:14:04;;;;;;;;;;;15.00;81.50;;;;;;4960382;28;19914;-87
2023/07/18 02:16:30;;;;;;;;;;;15.00;81.40;;;;;;4972850;28;19914;-88
2023/07/18 02:19:03;;;;;;;;;;;14.90;82.00;;;;;;4974340;28;19915;-87
2023/07/18 02:21:29;;;;;;;;;;;15.00;81.60;;;;;;4964877;28;19911;-88
2023/07/18 02:23:54;;;;;;;;;;;15.00;81.30;;;;;;4962101;28;19917;-87
2023/07/18 02:26:20;;;;;;;;;;;15.10;81.30;;;;;;4960059;28;19972;-87
2023/07/18 02:28:45;;;;;;;;;;;15.10;81.20;;;;;;4957882;28;19921;-88
2023/07/18 02:31:11;;;;;;;;;;;15.10;81.20;;;;;;4972796;28;19918;-87
2023/07/18 02:33:36;;;;;;;;;;;15.00;81.30;;;;;;4974500;28;19921;-88
2023/07/18 02:36:06;;;;;;;;;;;15.00;81.60;;;;;;4961929;28;19910;-88
2023/07/18 02:38:31;;;;;;;;;;;15.00;81.30;;;;;;4973443;28;19915;-88
2023/07/18 02:40:57;;;;;;;;;;;14.90;81.50;;;;;;4957088;28;20314;-88
2023/07/18 02:43:22;;;;;;;;;;;14.90;81.30;;;;;;4972317;28;19926;-87
2023/07/18 02:45:48;;;;;;;;;;;14.90;81.10;;;;;;4965351;28;19917;-88
2023/07/18 02:48:13;;;;;;;;;;;14.80;81.40;;;;;;4981206;28;19918;-87
2023/07/18 02:50:39;;;;;;;;;;;14.80;81.20;;;;;;4964534;28;19937;-87
2023/07/18 02:53:04;;;;;;;;;;;14.80;81.40;;;;;;4973584;28;19910;-87
2023/07/18 02:55:30;;;;;;;;;;;14.80;81.70;;;;;;4956110;28;19910;-90
2023/07/18 02:57:55;;;;;;;;;;;14.80;81.60;;;;;;4959198;28;19993;-87
2023/07/18 03:00:25;;;;;;;;;;;14.70;82.10;;;;;;4954927;28;19940;-87
2023/07/18 03:02:51;;;;;;;;;;;14.70;81.80;;;;;;4977105;28;19941;-87
2023/07/18 03:05:17;;;;;;;;;;;14.80;81.60;;;;;;4958935;28;19911;-87
2023/07/18 03:07:43;;;;;;;;;;;14.80;81.50;;;;;;4965369;28;20312;-88
2023/07/18 03:10:08;;;;;;;;;;;14.80;81.90;;;;;;4962867;28;19945;-89
2023/07/18 03:12:34;;;;;;;;;;;14.70;81.80;;;;;;4954604;28;20051;-88
2023/07/18 03:14:59;;;;;;;;;;;14.70;82.10;;;;;;4981578;28;19925;-87
2023/07/18 03:17:25;;;;;;;;;;;14.70;82.30;;;;;;4967273;28;19917;-88
2023/07/18 03:19:50;;;;;;;;;;;14.70;82.20;;;;;;4957509;28;20406;-89
2023/07/18 03:22:16;;;;;;;;;;;14.70;81.80;;;;;;4956659;28;19910;-87
2023/07/18 03:24:41;;;;;;;;;;;14.70;81.70;;;;;;4980132;28;19929;-87
2023/07/18 03:27:07;;;;;;;;;;;14.70;81.40;;;;;;4957600;28;19914;-87
2023/07/18 03:29:33;;;;;;;;;;;14.70;81.30;;;;;;4964870;28;20379;-88
2023/07/18 03:31:59;;;;;;;;;;;14.70;81.40;;;;;;4971982;28;19918;-87
2023/07/18 03:34:25;;;;;;;;;;;14.70;81.60;;;;;;4962208;28;19925;-88
2023/07/18 03:36:50;;;;;;;;;;;14.70;81.00;;;;;;4956674;28;20268;-87
2023/07/18 03:39:16;;;;;;;;;;;14.80;81.00;;;;;;4953938;28;19926;-88
2023/07/18 03:41:42;;;;;;;;;;;14.80;80.80;;;;;;4964997;28;20272;-87
2023/07/18 03:44:08;;;;;;;;;;;14.80;81.00;;;;;;4986425;28;19936;-93
2023/07/18 03:46:34;;;;;;;;;;;14.80;81.10;;;;;;4968008;28;20337;-88
2023/07/18 03:49:00;;;;;;;;;;;14.80;81.00;;;;;;4973239;28;19917;-90
2023/07/18 03:51:25;;;;;;;;;;;14.80;81.00;;;;;;4978778;28;19917;-88
2023/07/18 03:53:51;;;;;;;;;;;14.80;81.00;;;;;;4978468;28;19914;-88
2023/07/18 03:56:17;;;;;;;;;;;14.80;81.20;;;;;;4972202;28;20303;-87
2023/07/18 03:58:42;;;;;;;;;;;14.90;80.80;;;;;;4961757;28;20020;-88
2023/07/18 04:01:09;;;;;;;;;;;14.90;80.70;;;;;;4962557;28;19918;-88
2023/07/18 04:03:35;;;;;;;;;;;14.90;80.60;;;;;;4978522;28;19921;-88
2023/07/18 04:06:01;;;;;;;;;;;14.90;80.50;;;;;;4971880;28;19938;-89
2023/07/18 04:08:28;;;;;;;;;;;15.00;79.90;;;;;;4967459;28;19925;-87
2023/07/18 04:10:54;;;;;;;;;;;15.00;79.90;;;;;;4955764;28;20451;-89
2023/07/18 04:13:20;;;;;;;;;;;15.00;79.30;;;;;;4959460;28;19922;-88
2023/07/18 04:15:46;;;;;;;;;;;15.00;79.90;;;;;;4991617;28;20283;-89
2023/07/18 04:18:11;;;;;;;;;;;15.10;79.00;;;;;;4990002;28;19921;-88
2023/07/18 04:20:37;;;;;;;;;;;15.10;79.20;;;;;;4958534;28;20432;-88
2023/07/18 04:23:02;;;;;;;;;;;15.10;78.90;;;;;;4974947;28;19914;-88
2023/07/18 04:25:29;;;;;;;;;;;15.10;79.20;;;;;;4970067;28;19918;-89
2023/07/18 04:27:55;;;;;;;;;;;15.10;78.80;;;;;;4999429;28;19917;-88
2023/07/18 04:30:20;;;;;;;;;;;15.10;79.90;;;;;;4964687;28;20280;-88
2023/07/18 04:32:46;;;;;;;;;;;15.10;79.60;;;;;;4956427;28;19924;-88
2023/07/18 04:35:12;;;;;;;;;;;15.10;79.50;;;;;;4976063;28;19910;-88
2023/07/18 04:37:37;;;;;;;;;;;15.10;79.40;;;;;;4964395;28;20256;-89
2023/07/18 04:40:05;;;;;;;;;;;15.10;79.70;;;;;;4978081;28;19919;-89
2023/07/18 04:42:31;;;;;;;;;;;15.10;79.60;;;;;;4965871;28;19922;-88
2023/07/18 04:44:57;;;;;;;;;;;15.10;79.20;;;;;;4965500;28;20371;-88
2023/07/18 04:47:23;;;;;;;;;;;15.20;79.20;;;;;;4976219;28;19914;-88
2023/07/18 04:49:48;;;;;;;;;;;15.20;78.60;;;;;;4973863;28;20353;-88
2023/07/18 04:52:15;;;;;;;;;;;15.30;78.60;;;;;;4964374;28;19917;-88
2023/07/18 04:54:41;;;;;;;;;;;15.30;78.20;;;;;;4966443;28;19921;-87
2023/07/18 04:57:06;;;;;;;;;;;15.40;78.20;;;;;;4968476;28;19910;-88
2023/07/18 04:59:32;;;;;;;;;;;15.50;77.70;;;;;;4972031;28;19918;-88
2023/07/18 05:01:57;;;;;;;;;;;15.60;76.90;;;;;;4973151;28;19986;-88
2023/07/18 05:04:23;;;;;;;;;;;15.60;77.10;;;;;;4964965;28;20499;-89
2023/07/18 05:06:48;;;;;;;;;;;15.70;77.30;;;;;;4973181;28;19953;-89
2023/07/18 05:09:15;;;;;;;;;;;15.70;77.20;;;;;;4967949;28;19914;-88
2023/07/18 05:11:40;;;;;;;;;;;15.70;76.60;;;;;;4964813;28;19918;-88
2023/07/18 05:14:05;;;;;;;;;;;15.70;76.70;;;;;;4976921;28;19918;-88
2023/07/18 05:16:31;;;;;;;;;;;15.80;76.70;;;;;;4962888;28;20005;-89
2023/07/18 05:18:56;;;;;;;;;;;15.90;76.20;;;;;;4962633;28;19918;-88
2023/07/18 05:21:22;;;;;;;;;;;16.00;76.10;;;;;;4980456;28;20005;-88
2023/07/18 05:23:47;;;;;;;;;;;16.00;75.90;;;;;;4961841;28;19918;-88
2023/07/18 05:26:13;;;;;;;;;;;16.00;75.90;;;;;;4970969;28;20005;-87
2023/07/18 05:28:38;;;;;;;;;;;16.10;75.60;;;;;;4963609;28;19914;-89
2023/07/18 05:31:08;;;;;;;;;;;16.10;75.20;;;;;;4963715;28;19910;-89
2023/07/18 05:33:33;;;;;;;;;;;16.20;75.40;;;;;;4966914;28;19924;-88
2023/07/18 05:35:59;;;;;;;;;;;16.20;75.20;;;;;;4963503;28;19967;-89
2023/07/18 05:38:25;;;;;;;;;;;16.20;75.20;;;;;;4979473;28;20052;-88
2023/07/18 05:40:50;;;;;;;;;;;16.10;75.30;;;;;;4980067;28;19940;-88
2023/07/18 05:43:18;;;;;;;;;;;16.40;75.20;;;;;;4965885;28;19913;-88
2023/07/18 05:45:43;;;;;;;;;;;16.50;74.70;;;;;;4964823;28;19924;-88
2023/07/18 05:48:09;;;;;;;;;;;16.40;74.90;;;;;;4965556;28;19962;-88
2023/07/18 05:50:35;;;;;;;;;;;16.40;75.00;;;;;;4971173;28;20013;-89
2023/07/18 05:53:00;;;;;;;;;;;16.60;74.30;;;;;;4975137;28;19910;-88
2023/07/18 05:55:27;;;;;;;;;;;16.80;73.50;;;;;;4964056;28;19910;-88
2023/07/18 05:57:53;;;;;;;;;;;16.70;73.80;;;;;;4968060;28;19921;-88
2023/07/18 06:00:18;;;;;;;;;;;16.60;74.30;;;;;;4967265;28;19918;-88
2023/07/18 06:02:44;;;;;;;;;;;16.80;73.80;;;;;;4969149;28;19914;-88
2023/07/18 06:05:10;;;;;;;;;;;16.70;74.50;;;;;;4968609;28;20084;-89
2023/07/18 06:07:36;;;;;;;;;;;16.80;74.20;;;;;;4980414;28;19910;-88
2023/07/18 06:10:01;;;;;;;;;;;16.90;74.30;;;;;;4964174;28;20278;-88
2023/07/18 06:12:27;;;;;;;;;;;17.00;74.30;;;;;;4970493;28;20382;-88
2023/07/18 06:14:55;;;;;;;;;;;17.00;74.10;;;;;;4975408;28;19914;-88
2023/07/18 06:17:20;;;;;;;;;;;17.00;74.00;;;;;;4964311;28;19925;-90
2023/07/18 06:19:46;;;;;;;;;;;17.00;74.30;;;;;;4970270;28;20370;-88
2023/07/18 06:22:12;;;;;;;;;;;17.10;74.60;;;;;;4968999;28;19931;-88
2023/07/18 06:24:37;;;;;;;;;;;17.10;74.00;;;;;;4979656;28;19910;-89
2023/07/18 06:27:03;;;;;;;;;;;17.10;73.70;;;;;;4970611;28;19915;-88
2023/07/18 06:29:28;;;;;;;;;;;17.10;73.20;;;;;;4965191;28;20294;-88
2023/07/18 06:31:56;;;;;;;;;;;17.20;73.40;;;;;;4970029;28;19923;-88
2023/07/18 06:34:22;;;;;;;;;;;17.50;73.30;;;;;;4972649;28;19910;-87
2023/07/18 06:36:47;;;;;;;;;;;17.40;72.90;;;;;;4982292;28;20397;-89
2023/07/18 06:39:13;;;;;;;;;;;17.50;72.50;;;;;;4964035;28;19933;-90
2023/07/18 06:41:39;;;;;;;;;;;17.60;73.00;;;;;;4981332;28;20306;-88
2023/07/18 06:44:07;;;;;;;;;;;17.60;72.80;;;;;;4966827;28;19921;-89
2023/07/18 06:46:32;;;;;;;;;;;17.80;72.20;;;;;;4975357;28;20086;-89
2023/07/18 06:48:58;;;;;;;;;;;17.80;72.30;;;;;;4975777;28;19922;-88
2023/07/18 06:51:23;;;;;;;;;;;17.80;72.30;;;;;;4974067;28;19914;-88
2023/07/18 06:53:49;;;;;;;;;;;17.80;72.10;;;;;;4973595;28;20335;-89
2023/07/18 06:56:14;;;;;;;;;;;17.90;70.70;;;;;;4981736;28;20009;-88
2023/07/18 06:58:40;;;;;;;;;;;18.00;71.00;;;;;;4969600;28;19914;-87
2023/07/18 07:01:05;;;;;;;;;;;18.00;70.10;;;;;;4963282;28;19918;-89
2023/07/18 07:03:31;;;;;;;;;;;18.10;69.70;;;;;;4976994;28;19922;-88
2023/07/18 07:05:57;;;;;;;;;;;18.10;70.30;;;;;;4975012;28;19979;-89
2023/07/18 07:08:22;;;;;;;;;;;18.20;70.20;;;;;;4966601;28;19960;-88
2023/07/18 07:10:48;;;;;;;;;;;18.40;70.40;;;;;;4966219;28;19924;-88
2023/07/18 07:13:13;;;;;;;;;;;18.50;69.20;;;;;;4964615;28;19918;-89
2023/07/18 07:15:39;;;;;;;;;;;18.40;68.90;;;;;;4970235;28;20405;-88
2023/07/18 07:18:05;;;;;;;;;;;18.40;68.90;;;;;;4971007;28;19910;-91
2023/07/18 07:20:31;;;;;;;;;;;18.50;67.90;;;;;;4967194;28;19922;-88
2023/07/18 07:22:57;;;;;;;;;;;18.50;68.10;;;;;;4966440;28;19926;-88
2023/07/18 07:25:25;;;;;;;;;;;18.60;68.20;;;;;;4974016;28;19910;-89
2023/07/18 07:27:51;;;;;;;;;;;18.60;68.30;;;;;;4979464;28;19918;-89
2023/07/18 07:30:16;;;;;;;;;;;18.50;67.80;;;;;;4983529;28;19969;-89
2023/07/18 07:32:43;;;;;;;;;;;18.70;68.30;;;;;;4967262;28;19918;-88
2023/07/18 07:35:08;;;;;;;;;;;18.70;67.60;;;;;;4979751;28;20390;-88
2023/07/18 07:37:36;;;;;;;;;;;18.80;67.80;;;;;;4966708;28;23334;-89
2023/07/18 07:40:02;;;;;;;;;;;19.00;68.20;;;;;;4997422;28;19945;-89
2023/07/18 07:42:28;;;;;;;;;;;19.20;66.70;;;;;;4966665;28;19986;-88
2023/07/18 07:44:53;;;;;;;;;;;19.10;67.50;;;;;;4979590;28;20343;-89
2023/07/18 07:47:19;;;;;;;;;;;19.30;67.60;;;;;;4971102;28;19914;-88
2023/07/18 07:49:44;;;;;;;;;;;19.30;66.40;;;;;;4982029;28;19959;-88
2023/07/18 07:52:10;;;;;;;;;;;19.40;64.30;;;;;;4966531;28;19910;-88
2023/07/18 07:54:35;;;;;;;;;;;19.40;63.20;;;;;;4975441;28;20125;-89
2023/07/18 07:57:01;;;;;;;;;;;19.40;63.00;;;;;;4970437;28;19970;-88
2023/07/18 07:59:26;;;;;;;;;;;19.60;64.10;;;;;;4969546;28;19924;-89
2023/07/18 08:01:52;;;;;;;;;;;19.60;64.50;;;;;;4969876;28;19953;-88
2023/07/18 08:04:17;;;;;;;;;;;19.70;64.00;;;;;;4974577;28;19925;-89
2023/07/18 08:06:43;;;;;;;;;;;19.70;63.90;;;;;;4970428;28;19973;-88
2023/07/18 08:09:08;;;;;;;;;;;19.70;64.80;;;;;;4968819;28;19917;-89
2023/07/18 08:11:34;;;;;;;;;;;19.80;64.30;;;;;;4973861;28;20213;-88
2023/07/18 08:13:59;;;;;;;;;;;19.80;62.50;;;;;;4967487;28;19914;-89
2023/07/18 08:16:25;;;;;;;;;;;20.00;61.30;;;;;;4974749;28;20016;-88
2023/07/18 08:18:50;;;;;;;;;;;20.00;60.60;;;;;;4973559;28;20313;-88
2023/07/18 08:21:15;;;;;;;;;;;20.00;60.90;;;;;;4970220;28;20548;-89
2023/07/18 08:23:41;;;;;;;;;;;20.00;61.70;;;;;;4972932;28;19989;-89
2023/07/18 08:26:07;;;;;;;;;;;20.10;61.10;;;;;;4973003;28;19917;-88
2023/07/18 08:28:32;;;;;;;;;;;20.10;60.60;;;;;;4977384;28;19922;-89
2023/07/18 08:30:57;;;;;;;;;;;20.10;59.90;;;;;;4970838;28;19914;-89
2023/07/18 08:33:24;;;;;;;;;;;20.10;60.20;;;;;;4967520;28;19974;-90
2023/07/18 08:35:49;;;;;;;;;;;20.20;58.90;;;;;;4965399;28;19928;-89
2023/07/18 08:38:15;;;;;;;;;;;20.20;58.90;;;;;;4967986;28;19969;-89
2023/07/18 08:40:41;;;;;;;;;;;20.40;60.10;;;;;;4983221;28;19918;-87
2023/07/18 08:43:13;;;;;;;;;;;20.40;60.20;;;;;;4976046;28;19914;-88
2023/07/18 08:45:39;;;;;;;;;;;20.40;58.70;;;;;;4981800;28;19914;-89
2023/07/18 08:48:05;;;;;;;;;;;20.50;58.20;;;;;;4967380;28;19960;-88
2023/07/18 08:50:30;;;;;;;;;;;20.50;59.50;;;;;;4970566;28;19914;-89
2023/07/18 08:52:56;;;;;;;;;;;20.60;58.70;;;;;;4977640;28;19910;-88
2023/07/18 08:55:22;;;;;;;;;;;20.70;57.40;;;;;;4974986;28;19914;-90
2023/07/18 08:57:50;;;;;;;;;;;20.80;56.00;;;;;;4985275;28;19929;-86
2023/07/18 09:00:20;;;;;;;;;;;20.80;56.80;;;;;;4957517;28;20458;-87
2023/07/18 09:02:48;;;;;;;;;;;20.80;54.90;;;;;;4957734;28;19929;-88
2023/07/18 09:05:31;;;;;;;;;;;21.00;52.80;;;;;;4959597;28;20017;-88
2023/07/18 09:07:57;;;;;;;;;;;21.00;53.80;;;;;;4963670;28;19917;-87
2023/07/18 09:10:23;;;;;;;;;;;21.10;53.00;;;;;;4960974;28;19924;-88
2023/07/18 09:12:49;;;;;;;;;;;21.30;51.30;;;;;;4956629;28;20001;-87
2023/07/18 09:15:19;;;;;;;;;;;21.30;51.20;;;;;;4966392;28;19959;-87
2023/07/18 09:17:54;;;;;;;;;;;21.20;51.50;;;;;;4979005;28;19914;-87
2023/07/18 09:20:21;;;;;;;;;;;21.20;50.90;;;;;;4987173;22;19957;-82
2023/07/18 09:22:46;;;;;;;;;;;21.30;51.60;;;;;;4992361;28;19913;-82
2023/07/18 09:25:16;;;;;;;;;;;21.50;51.40;;;;;;5006051;28;19916;-82
2023/07/18 09:27:41;;;;;;;;;;;21.60;51.40;;;;;;4997074;28;20302;-83
2023/07/18 09:30:07;;;;;;;;;;;21.50;51.40;;;;;;4997877;28;19913;-83
2023/07/18 09:32:33;;;;;;;;;;;21.50;52.70;;;;;;4986648;28;19910;-83
2023/07/18 09:34:59;;;;;;;;;;;21.60;51.90;;;;;;5002794;28;19921;-82
2023/07/18 09:37:24;;;;;;;;;;;21.80;52.00;;;;;;5009045;28;19913;-83
2023/07/18 09:39:50;;;;;;;;;;;22.00;49.40;;;;;;5006543;28;19967;-82
2023/07/18 09:42:17;;;;;;;;;;;22.00;50.10;;;;;;4987788;28;19922;-82
2023/07/18 09:44:45;;;;;;;;;;;22.00;49.00;;;;;;4990616;28;19913;-82
2023/07/18 09:47:10;;;;;;;;;;;22.10;50.00;;;;;;4974067;28;19914;-81
2023/07/18 09:49:45;;;;;;;;;;;22.10;50.60;;;;;;4967510;28;20552;-82
2023/07/18 09:52:11;;;;;;;;;;;22.30;48.90;;;;;;4997634;28;19997;-82
2023/07/18 09:54:37;;;;;;;;;;;22.30;49.80;;;;;;4974978;28;20008;-81
2023/07/18 09:57:03;;;;;;;;;;;22.40;48.00;;;;;;4992619;28;19945;-81
2023/07/18 09:59:29;;;;;;;;;;;22.60;48.60;;;;;;4973317;28;20402;-83
2023/07/18 10:01:55;;;;;;;;;;;22.90;49.00;;;;;;4978918;28;20016;-82
2023/07/18 10:04:22;;;;;;;;;;;22.90;47.00;;;;;;4977838;28;19987;-83
2023/07/18 10:06:48;;;;;;;;;;;23.00;48.10;;;;;;4977647;28;19922;-83
2023/07/18 10:09:14;;;;;;;;;;;23.00;48.60;;;;;;4977605;28;19973;-83
2023/07/18 10:11:58;;;;;;;;;;;23.00;48.00;;;;;;4982154;28;19922;-81
2023/07/18 10:14:27;;;;;;;;;;;23.10;46.90;;;;;;4992227;28;19918;-84
2023/07/18 10:16:54;;;;;;;;;;;23.20;47.10;;;;;;4978907;28;19910;-82
2023/07/18 10:19:22;;;;;;;;;;;23.50;46.40;;;;;;5003019;28;19942;-83
2023/07/18 10:21:47;;;;;;;;;;;23.30;46.80;;;;;;4979833;28;19918;-83
2023/07/18 10:24:19;;;;;;;;;;;23.40;46.90;;;;;;4988840;28;19914;-83
2023/07/18 10:26:47;;;;;;;;;;;23.40;46.60;;;;;;4995709;28;19916;-82
2023/07/18 10:29:12;;;;;;;;;;;23.20;45.80;;;;;;4992359;28;20293;-84
2023/07/18 10:31:37;;;;;;;;;;;23.10;47.00;;;;;;5000480;28;20012;-84
2023/07/18 10:34:04;;;;;;;;;;;23.30;46.30;;;;;;5001752;28;20488;-82
2023/07/18 10:36:30;;;;;;;;;;;23.50;45.10;;;;;;5004158;28;19913;-84
2023/07/18 10:38:56;;;;;;;;;;;23.50;44.70;;;;;;4979457;28;19922;-82
2023/07/18 10:41:21;;;;;;;;;;;23.50;45.40;;;;;;4977959;28;19926;-83
2023/07/18 10:43:47;;;;;;;;;;;23.30;44.50;;;;;;4994766;28;20462;-83
2023/07/18 10:46:13;;;;;;;;;;;23.30;45.30;;;;;;4996676;28;19914;-81
2023/07/18 10:48:38;;;;;;;;;;;23.30;45.10;;;;;;4973931;28;19918;-82
2023/07/18 10:51:08;;;;;;;;;;;23.20;45.50;;;;;;4981937;28;20081;-82
2023/07/18 10:53:33;;;;;;;;;;;23.30;47.10;;;;;;4985170;28;19925;-83
2023/07/18 10:55:59;;;;;;;;;;;23.50;45.20;;;;;;5001224;28;19989;-84
2023/07/18 10:58:24;;;;;;;;;;;23.50;46.10;;;;;;5006983;28;19956;-84
2023/07/18 11:00:49;;;;;;;;;;;23.60;46.00;;;;;;4989153;28;20366;-84
2023/07/18 11:03:19;;;;;;;;;;;23.80;45.80;;;;;;4988135;28;20422;-84
2023/07/18 11:05:51;;;;;;;;;;;23.80;45.80;;;;;;4977341;28;19914;-84
2023/07/18 11:08:25;;;;;;;;;;;23.80;45.20;;;;;;5002941;28;20291;-83
2023/07/18 11:10:54;;;;;;;;;;;23.80;45.20;;;;;;4988965;28;19957;-80
2023/07/18 11:13:19;;;;;;;;;;;23.80;46.10;;;;;;5022705;28;20326;-81
2023/07/18 11:15:45;;;;;;;;;;;23.80;45.60;;;;;;5010850;28;19914;-83
2023/07/18 11:18:10;;;;;;;;;;;23.70;44.70;;;;;;4999646;28;19936;-83
2023/07/18 11:20:36;;;;;;;;;;;23.60;44.80;;;;;;4981800;28;20028;-84
2023/07/18 11:23:01;;;;;;;;;;;23.60;45.80;;;;;;4977294;28;19924;-83
2023/07/18 11:25:27;;;;;;;;;;;23.50;46.00;;;;;;4998824;28;19936;-80
2023/07/18 11:27:52;;;;;;;;;;;23.50;46.00;;;;;;4978520;28;19921;-83
2023/07/18 11:30:21;;;;;;;;;;;23.40;47.20;;;;;;4981026;28;20543;-84
2023/07/18 11:32:46;;;;;;;;;;;23.40;46.00;;;;;;4983518;28;19917;-84
2023/07/18 11:35:18;;;;;;;;;;;23.50;47.30;;;;;;4978253;28;20283;-84
2023/07/18 11:37:46;;;;;;;;;;;23.50;47.30;;;;;;4989460;28;20366;-83
2023/07/18 11:40:11;;;;;;;;;;;23.60;47.00;;;;;;4996762;28;19928;-83
2023/07/18 11:42:44;;;;;;;;;;;23.50;46.70;;;;;;4976574;28;19922;-80
2023/07/18 11:45:09;;;;;;;;;;;23.50;46.80;;;;;;4973595;28;19935;-82
2023/07/18 11:47:35;;;;;;;;;;;23.40;46.90;;;;;;5014490;28;19910;-83
2023/07/18 11:50:01;;;;;;;;;;;23.40;47.30;;;;;;4995686;28;20437;-83
2023/07/18 11:52:27;;;;;;;;;;;23.40;46.80;;;;;;4997549;28;19929;-84
2023/07/18 11:54:52;;;;;;;;;;;23.50;46.50;;;;;;5013283;27;19914;-80
2023/07/18 11:57:18;;;;;;;;;;;23.50;45.50;;;;;;4997978;28;19987;-82
2023/07/18 11:59:43;;;;;;;;;;;23.50;45.20;;;;;;4983317;28;19936;-82
2023/07/18 12:02:09;;;;;;;;;;;23.60;45.20;;;;;;4975811;28;19928;-82
2023/07/18 12:04:35;;;;;;;;;;;23.70;46.00;;;;;;5003839;28;19916;-84
2023/07/18 12:07:00;;;;;;;;;;;23.80;45.40;;;;;;4983767;28;19913;-84
2023/07/18 12:09:26;;;;;;;;;;;23.70;45.20;;;;;;4996410;28;19964;-83
2023/07/18 12:11:51;;;;;;;;;;;23.80;45.70;;;;;;4984705;28;19922;-83
2023/07/18 12:14:17;;;;;;;;;;;23.70;46.10;;;;;;4990471;28;19914;-81
2023/07/18 12:16:42;;;;;;;;;;;23.90;46.10;;;;;;5014277;28;19901;-80
2023/07/18 12:19:08;;;;;;;;;;;24.00;45.00;;;;;;4999210;28;19931;-83
2023/07/18 12:21:33;;;;;;;;;;;24.00;46.30;;;;;;4983526;28;19918;-84
2023/07/18 12:23:59;;;;;;;;;;;24.10;45.00;;;;;;4984333;28;19968;-84
2023/07/18 12:26:24;;;;;;;;;;;24.20;44.20;;;;;;4986015;28;19986;-83
2023/07/18 12:28:51;;;;;;;;;;;24.30;43.30;;;;;;4985576;28;19951;-82
2023/07/18 12:31:17;;;;;;;;;;;24.10;45.00;;;;;;4977208;28;20374;-84
2023/07/18 12:33:43;;;;;;;;;;;24.00;43.80;;;;;;4980169;28;19917;-82
2023/07/18 12:36:08;;;;;;;;;;;24.00;43.60;;;;;;4986741;28;20434;-83
2023/07/18 12:38:34;;;;;;;;;;;24.00;44.50;;;;;;5009595;28;19997;-84
2023/07/18 12:40:59;;;;;;;;;;;24.00;44.00;;;;;;4994820;28;19918;-83
2023/07/18 12:43:25;;;;;;;;;;;24.00;45.00;;;;;;4985624;28;19914;-83
2023/07/18 12:45:50;;;;;;;;;;;24.10;45.30;;;;;;4975449;28;19925;-83
2023/07/18 12:48:16;;;;;;;;;;;24.00;44.80;;;;;;4998666;28;19993;-83
2023/07/18 12:50:42;;;;;;;;;;;24.00;43.90;;;;;;5001677;28;19955;-84
2023/07/18 12:53:08;;;;;;;;;;;23.80;44.80;;;;;;4992495;28;19917;-84
2023/07/18 12:55:33;;;;;;;;;;;23.80;44.40;;;;;;4990645;28;19913;-84
2023/07/18 12:57:59;;;;;;;;;;;23.80;46.30;;;;;;4990942;28;19985;-81
2023/07/18 13:00:24;;;;;;;;;;;23.90;44.40;;;;;;4973503;28;19921;-85
2023/07/18 13:02:49;;;;;;;;;;;23.60;45.20;;;;;;4979181;28;19913;-84
2023/07/18 13:05:16;;;;;;;;;;;23.70;45.00;;;;;;4990085;28;19920;-83
2023/07/18 13:07:41;;;;;;;;;;;23.70;45.80;;;;;;4974327;28;19917;-84
2023/07/18 13:10:07;;;;;;;;;;;23.90;46.10;;;;;;5001681;28;19914;-84
2023/07/18 13:12:32;;;;;;;;;;;24.00;44.60;;;;;;4973402;28;19920;-83
2023/07/18 13:14:58;;;;;;;;;;;24.10;45.10;;;;;;4983904;28;20414;-84
2023/07/18 13:17:23;;;;;;;;;;;24.30;45.40;;;;;;4992936;28;20335;-84
2023/07/18 13:19:49;;;;;;;;;;;24.10;44.60;;;;;;4979209;28;19949;-83
2023/07/18 13:22:14;;;;;;;;;;;24.10;44.50;;;;;;4999155;28;19937;-84
2023/07/18 13:24:40;;;;;;;;;;;24.10;43.00;;;;;;4980302;28;20020;-82
2023/07/18 13:27:05;;;;;;;;;;;24.10;44.10;;;;;;4991985;28;19902;-82
2023/07/18 13:29:31;;;;;;;;;;;24.00;44.10;;;;;;4995852;28;19906;-81
2023/07/18 13:31:56;;;;;;;;;;;24.30;43.30;;;;;;5008452;28;20394;-83
2023/07/18 13:34:22;;;;;;;;;;;24.20;43.40;;;;;;4983842;28;19913;-82
2023/07/18 13:36:47;;;;;;;;;;;24.30;43.90;;;;;;4992304;28;19945;-82
2023/07/18 13:39:13;;;;;;;;;;;24.30;43.70;;;;;;4970306;28;19910;-83
2023/07/18 13:41:38;;;;;;;;;;;24.50;42.90;;;;;;4997179;28;20923;-83
2023/07/18 13:44:04;;;;;;;;;;;24.50;41.50;;;;;;4986177;28;19913;-82
2023/07/18 13:46:29;;;;;;;;;;;24.50;42.20;;;;;;4974324;28;20341;-81
2023/07/18 13:48:55;;;;;;;;;;;24.50;42.80;;;;;;4998487;28;19918;-83
2023/07/18 13:51:20;;;;;;;;;;;24.40;42.80;;;;;;4969532;28;19921;-82
2023/07/18 13:53:46;;;;;;;;;;;24.40;42.40;;;;;;4971287;28;19914;-82
2023/07/18 13:56:11;;;;;;;;;;;24.60;42.40;;;;;;4989376;28;19985;-80
2023/07/18 13:58:36;;;;;;;;;;;24.70;42.00;;;;;;4968786;28;19914;-83
2023/07/18 14:01:02;;;;;;;;;;;24.80;42.00;;;;;;4971736;28;19970;-83
2023/07/18 14:03:28;;;;;;;;;;;24.80;41.60;;;;;;4987902;28;19914;-82
2023/07/18 14:05:54;;;;;;;;;;;24.80;41.10;;;;;;4971152;28;19921;-83
2023/07/18 14:08:20;;;;;;;;;;;24.80;41.70;;;;;;4988725;28;19957;-82
2023/07/18 14:10:45;;;;;;;;;;;24.80;40.50;;;;;;5001060;28;19955;-84